sensor_id;sensor_type;location;lat;lon;timestamp;P1;durP1;ratioP1;P2;durP2;ratioP2
46447;SDS011;32145;50.390;30.778;2022-08-02T00:00:03;8.73;;;5.97;;
46447;SDS011;32145;50.390;30.778;2022-08-02T00:02:48;8.32;;;6.28;;
46447;SDS011;32145;50.390;30.778;2022-08-02T00:05:32;6.63;;;5.57;;
46447;SDS011;32145;50.390;30.778;2022-08-02T00:08:18;7.72;;;5.97;;
46447;SDS011;32145;50.390;30.778;2022-08-02T00:11:03;9.65;;;6.30;;
46447;SDS011;32145;50.390;30.778;2022-08-02T00:13:46;7.53;;;5.93;;
46447;SDS011;32145;50.390;30.778;2022-08-02T00:16:30;6.88;;;5.80;;
46447;SDS011;32145;50.390;30.778;2022-08-02T00:19:14;6.45;;;5.75;;
46447;SDS011;32145;50.390;30.778;2022-08-02T00:21:59;8.95;;;6.00;;
46447;SDS011;32145;50.390;30.778;2022-08-02T00:24:44;7.97;;;6.00;;
46447;SDS011;32145;50.390;30.778;2022-08-02T00:27:28;11.40;;;6.57;;
46447;SDS011;32145;50.390;30.778;2022-08-02T00:30:12;8.60;;;6.28;;
46447;SDS011;32145;50.390;30.778;2022-08-02T00:32:57;7.32;;;5.80;;
46447;SDS011;32145;50.390;30.778;2022-08-02T00:35:41;8.07;;;6.25;;
46447;SDS011;32145;50.390;30.778;2022-08-02T00:38:25;8.30;;;6.07;;
46447;SDS011;32145;50.390;30.778;2022-08-02T00:41:14;6.88;;;6.10;;
46447;SDS011;32145;50.390;30.778;2022-08-02T00:44:00;7.20;;;5.88;;
46447;SDS011;32145;50.390;30.778;2022-08-02T00:46:44;8.80;;;6.32;;
46447;SDS011;32145;50.390;30.778;2022-08-02T00:49:28;8.45;;;6.70;;
46447;SDS011;32145;50.390;30.778;2022-08-02T00:52:12;8.20;;;6.65;;
46447;SDS011;32145;50.390;30.778;2022-08-02T00:54:56;8.85;;;6.15;;
46447;SDS011;32145;50.390;30.778;2022-08-02T00:57:42;8.65;;;6.50;;
46447;SDS011;32145;50.390;30.778;2022-08-02T01:00:26;7.93;;;6.75;;
46447;SDS011;32145;50.390;30.778;2022-08-02T01:03:11;7.72;;;6.25;;
46447;SDS011;32145;50.390;30.778;2022-08-02T01:05:55;8.18;;;6.97;;
46447;SDS011;32145;50.390;30.778;2022-08-02T01:08:39;8.52;;;6.32;;
46447;SDS011;32145;50.390;30.778;2022-08-02T01:11:23;8.23;;;6.20;;
46447;SDS011;32145;50.390;30.778;2022-08-02T01:14:09;9.32;;;6.05;;
46447;SDS011;32145;50.390;30.778;2022-08-02T01:16:58;7.53;;;6.70;;
46447;SDS011;32145;50.390;30.778;2022-08-02T01:19:50;9.55;;;6.50;;
46447;SDS011;32145;50.390;30.778;2022-08-02T01:22:45;11.30;;;6.63;;
46447;SDS011;32145;50.390;30.778;2022-08-02T01:28:51;8.20;;;6.05;;
46447;SDS011;32145;50.390;30.778;2022-08-02T01:31:41;9.95;;;6.60;;
46447;SDS011;32145;50.390;30.778;2022-08-02T01:34:31;8.77;;;5.97;;
46447;SDS011;32145;50.390;30.778;2022-08-02T01:37:19;11.00;;;5.68;;
46447;SDS011;32145;50.390;30.778;2022-08-02T01:40:08;10.25;;;6.53;;
46447;SDS011;32145;50.390;30.778;2022-08-02T01:42:55;7.93;;;6.07;;
46447;SDS011;32145;50.390;30.778;2022-08-02T01:45:41;8.18;;;6.35;;
46447;SDS011;32145;50.390;30.778;2022-08-02T01:48:27;9.70;;;6.32;;
46447;SDS011;32145;50.390;30.778;2022-08-02T01:51:14;9.50;;;6.68;;
46447;SDS011;32145;50.390;30.778;2022-08-02T01:54:00;13.85;;;6.28;;
46447;SDS011;32145;50.390;30.778;2022-08-02T01:56:45;11.30;;;6.88;;
46447;SDS011;32145;50.390;30.778;2022-08-02T01:59:30;9.48;;;7.22;;
46447;SDS011;32145;50.390;30.778;2022-08-02T02:02:17;11.73;;;6.60;;
46447;SDS011;32145;50.390;30.778;2022-08-02T02:05:03;7.28;;;6.47;;
46447;SDS011;32145;50.390;30.778;2022-08-02T02:07:49;8.27;;;6.60;;
46447;SDS011;32145;50.390;30.778;2022-08-02T02:10:37;10.32;;;7.18;;
46447;SDS011;32145;50.390;30.778;2022-08-02T02:13:22;9.20;;;6.43;;
46447;SDS011;32145;50.390;30.778;2022-08-02T02:16:08;10.68;;;6.25;;
46447;SDS011;32145;50.390;30.778;2022-08-02T02:18:55;7.28;;;6.05;;
46447;SDS011;32145;50.390;30.778;2022-08-02T02:21:42;7.75;;;6.03;;
46447;SDS011;32145;50.390;30.778;2022-08-02T02:24:26;8.32;;;5.72;;
46447;SDS011;32145;50.390;30.778;2022-08-02T02:27:11;9.68;;;6.22;;
46447;SDS011;32145;50.390;30.778;2022-08-02T02:29:57;7.38;;;5.72;;
46447;SDS011;32145;50.390;30.778;2022-08-02T02:32:43;7.60;;;6.18;;
46447;SDS011;32145;50.390;30.778;2022-08-02T02:35:33;7.32;;;5.75;;
46447;SDS011;32145;50.390;30.778;2022-08-02T02:38:19;8.23;;;6.20;;
46447;SDS011;32145;50.390;30.778;2022-08-02T02:41:04;7.80;;;6.20;;
46447;SDS011;32145;50.390;30.778;2022-08-02T02:43:49;8.85;;;6.20;;
46447;SDS011;32145;50.390;30.778;2022-08-02T02:46:35;9.65;;;6.32;;
46447;SDS011;32145;50.390;30.778;2022-08-02T02:49:20;11.07;;;5.70;;
46447;SDS011;32145;50.390;30.778;2022-08-02T02:52:07;10.75;;;6.18;;
46447;SDS011;32145;50.390;30.778;2022-08-02T02:54:52;7.68;;;6.30;;
46447;SDS011;32145;50.390;30.778;2022-08-02T02:57:38;7.78;;;5.95;;
46447;SDS011;32145;50.390;30.778;2022-08-02T03:00:23;9.60;;;5.47;;
46447;SDS011;32145;50.390;30.778;2022-08-02T03:03:08;9.75;;;6.00;;
46447;SDS011;32145;50.390;30.778;2022-08-02T03:05:53;8.57;;;5.97;;
46447;SDS011;32145;50.390;30.778;2022-08-02T03:08:39;8.00;;;5.68;;
46447;SDS011;32145;50.390;30.778;2022-08-02T03:11:24;6.78;;;5.20;;
46447;SDS011;32145;50.390;30.778;2022-08-02T03:14:10;8.73;;;5.70;;
46447;SDS011;32145;50.390;30.778;2022-08-02T03:16:56;12.32;;;5.57;;
46447;SDS011;32145;50.390;30.778;2022-08-02T03:19:39;7.65;;;5.63;;
46447;SDS011;32145;50.390;30.778;2022-08-02T03:22:23;8.35;;;5.53;;
46447;SDS011;32145;50.390;30.778;2022-08-02T03:25:10;7.10;;;5.57;;
46447;SDS011;32145;50.390;30.778;2022-08-02T03:27:56;8.85;;;5.07;;
46447;SDS011;32145;50.390;30.778;2022-08-02T03:30:40;8.25;;;5.80;;
46447;SDS011;32145;50.390;30.778;2022-08-02T03:33:24;9.15;;;5.65;;
46447;SDS011;32145;50.390;30.778;2022-08-02T03:36:09;7.15;;;5.95;;
46447;SDS011;32145;50.390;30.778;2022-08-02T03:38:55;8.23;;;5.53;;
46447;SDS011;32145;50.390;30.778;2022-08-02T03:41:41;8.45;;;5.63;;
46447;SDS011;32145;50.390;30.778;2022-08-02T03:44:26;8.52;;;5.95;;
46447;SDS011;32145;50.390;30.778;2022-08-02T03:47:10;8.60;;;5.82;;
46447;SDS011;32145;50.390;30.778;2022-08-02T03:49:55;9.00;;;5.30;;
46447;SDS011;32145;50.390;30.778;2022-08-02T03:52:41;7.18;;;5.38;;
46447;SDS011;32145;50.390;30.778;2022-08-02T03:55:28;8.40;;;5.85;;
46447;SDS011;32145;50.390;30.778;2022-08-02T03:58:17;6.13;;;5.28;;
46447;SDS011;32145;50.390;30.778;2022-08-02T04:01:01;8.48;;;5.30;;
46447;SDS011;32145;50.390;30.778;2022-08-02T04:03:45;8.88;;;5.57;;
46447;SDS011;32145;50.390;30.778;2022-08-02T04:06:29;7.00;;;4.97;;
46447;SDS011;32145;50.390;30.778;2022-08-02T04:09:13;7.22;;;5.43;;
46447;SDS011;32145;50.390;30.778;2022-08-02T04:11:57;7.20;;;5.40;;
46447;SDS011;32145;50.390;30.778;2022-08-02T04:14:43;7.47;;;5.13;;
46447;SDS011;32145;50.390;30.778;2022-08-02T04:17:27;8.27;;;5.20;;
46447;SDS011;32145;50.390;30.778;2022-08-02T04:20:16;9.15;;;5.28;;
46447;SDS011;32145;50.390;30.778;2022-08-02T04:23:03;7.97;;;5.30;;
46447;SDS011;32145;50.390;30.778;2022-08-02T04:25:49;7.32;;;5.18;;
46447;SDS011;32145;50.390;30.778;2022-08-02T04:28:35;7.20;;;5.20;;
46447;SDS011;32145;50.390;30.778;2022-08-02T04:31:21;9.05;;;5.03;;
46447;SDS011;32145;50.390;30.778;2022-08-02T04:34:05;7.70;;;5.05;;
46447;SDS011;32145;50.390;30.778;2022-08-02T04:36:50;7.30;;;5.20;;
46447;SDS011;32145;50.390;30.778;2022-08-02T04:39:34;8.48;;;5.80;;
46447;SDS011;32145;50.390;30.778;2022-08-02T04:42:19;7.97;;;5.18;;
46447;SDS011;32145;50.390;30.778;2022-08-02T04:45:03;9.25;;;5.35;;
46447;SDS011;32145;50.390;30.778;2022-08-02T04:47:51;9.00;;;5.43;;
46447;SDS011;32145;50.390;30.778;2022-08-02T04:50:35;9.07;;;5.60;;
46447;SDS011;32145;50.390;30.778;2022-08-02T04:53:19;8.63;;;5.30;;
46447;SDS011;32145;50.390;30.778;2022-08-02T04:56:04;10.27;;;5.07;;
46447;SDS011;32145;50.390;30.778;2022-08-02T04:58:48;9.25;;;5.28;;
46447;SDS011;32145;50.390;30.778;2022-08-02T05:01:32;11.95;;;5.22;;
46447;SDS011;32145;50.390;30.778;2022-08-02T05:04:18;9.30;;;5.22;;
46447;SDS011;32145;50.390;30.778;2022-08-02T05:07:02;8.25;;;5.47;;
46447;SDS011;32145;50.390;30.778;2022-08-02T05:09:46;8.63;;;5.10;;
46447;SDS011;32145;50.390;30.778;2022-08-02T05:12:30;6.72;;;4.95;;
46447;SDS011;32145;50.390;30.778;2022-08-02T05:15:14;8.82;;;5.43;;
46447;SDS011;32145;50.390;30.778;2022-08-02T05:17:58;9.23;;;5.05;;
46447;SDS011;32145;50.390;30.778;2022-08-02T05:20:44;9.15;;;5.65;;
46447;SDS011;32145;50.390;30.778;2022-08-02T05:23:28;12.75;;;5.50;;
46447;SDS011;32145;50.390;30.778;2022-08-02T05:26:12;9.38;;;5.32;;
46447;SDS011;32145;50.390;30.778;2022-08-02T05:28:56;6.68;;;4.85;;
46447;SDS011;32145;50.390;30.778;2022-08-02T05:31:40;8.15;;;5.55;;
46447;SDS011;32145;50.390;30.778;2022-08-02T05:34:24;11.95;;;5.18;;
46447;SDS011;32145;50.390;30.778;2022-08-02T05:37:09;8.23;;;5.38;;
46447;SDS011;32145;50.390;30.778;2022-08-02T05:39:53;10.55;;;5.90;;
46447;SDS011;32145;50.390;30.778;2022-08-02T05:42:37;10.73;;;5.25;;
46447;SDS011;32145;50.390;30.778;2022-08-02T05:45:21;9.45;;;5.30;;
46447;SDS011;32145;50.390;30.778;2022-08-02T05:48:05;10.52;;;5.28;;
46447;SDS011;32145;50.390;30.778;2022-08-02T05:50:51;7.88;;;5.22;;
46447;SDS011;32145;50.390;30.778;2022-08-02T05:53:40;10.73;;;5.25;;
46447;SDS011;32145;50.390;30.778;2022-08-02T05:56:30;13.35;;;5.68;;
46447;SDS011;32145;50.390;30.778;2022-08-02T05:59:18;9.75;;;5.47;;
46447;SDS011;32145;50.390;30.778;2022-08-02T06:02:11;11.50;;;6.28;;
46447;SDS011;32145;50.390;30.778;2022-08-02T06:05:03;13.85;;;6.05;;
46447;SDS011;32145;50.390;30.778;2022-08-02T06:07:53;11.30;;;5.78;;
46447;SDS011;32145;50.390;30.778;2022-08-02T06:10:40;10.20;;;6.53;;
46447;SDS011;32145;50.390;30.778;2022-08-02T06:13:26;8.40;;;5.53;;
46447;SDS011;32145;50.390;30.778;2022-08-02T06:16:11;9.93;;;5.85;;
46447;SDS011;32145;50.390;30.778;2022-08-02T06:18:55;7.55;;;4.93;;
46447;SDS011;32145;50.390;30.778;2022-08-02T06:21:41;12.13;;;5.63;;
46447;SDS011;32145;50.390;30.778;2022-08-02T06:24:26;7.07;;;5.85;;
46447;SDS011;32145;50.390;30.778;2022-08-02T06:27:13;9.38;;;5.78;;
46447;SDS011;32145;50.390;30.778;2022-08-02T06:29:58;11.18;;;5.53;;
46447;SDS011;32145;50.390;30.778;2022-08-02T06:32:42;7.82;;;5.40;;
46447;SDS011;32145;50.390;30.778;2022-08-02T06:35:31;7.80;;;5.32;;
46447;SDS011;32145;50.390;30.778;2022-08-02T06:38:20;7.13;;;5.18;;
46447;SDS011;32145;50.390;30.778;2022-08-02T06:41:07;6.78;;;5.07;;
46447;SDS011;32145;50.390;30.778;2022-08-02T06:43:57;7.75;;;5.72;;
46447;SDS011;32145;50.390;30.778;2022-08-02T06:46:43;6.15;;;5.22;;
46447;SDS011;32145;50.390;30.778;2022-08-02T06:49:27;11.85;;;5.20;;
46447;SDS011;32145;50.390;30.778;2022-08-02T06:52:12;8.57;;;5.55;;
46447;SDS011;32145;50.390;30.778;2022-08-02T06:54:56;6.68;;;5.43;;
46447;SDS011;32145;50.390;30.778;2022-08-02T06:57:42;8.15;;;5.38;;
46447;SDS011;32145;50.390;30.778;2022-08-02T07:00:27;6.13;;;5.35;;
46447;SDS011;32145;50.390;30.778;2022-08-02T07:03:11;6.45;;;4.80;;
46447;SDS011;32145;50.390;30.778;2022-08-02T07:05:56;8.77;;;5.20;;
46447;SDS011;32145;50.390;30.778;2022-08-02T07:08:40;7.32;;;5.18;;
46447;SDS011;32145;50.390;30.778;2022-08-02T07:11:24;6.38;;;4.88;;
46447;SDS011;32145;50.390;30.778;2022-08-02T07:14:08;6.97;;;5.45;;
46447;SDS011;32145;50.390;30.778;2022-08-02T07:16:53;8.18;;;5.38;;
46447;SDS011;32145;50.390;30.778;2022-08-02T07:19:37;7.70;;;5.65;;
46447;SDS011;32145;50.390;30.778;2022-08-02T07:22:21;11.93;;;6.30;;
46447;SDS011;32145;50.390;30.778;2022-08-02T07:25:05;10.23;;;5.85;;
46447;SDS011;32145;50.390;30.778;2022-08-02T07:27:50;9.60;;;5.95;;
46447;SDS011;32145;50.390;30.778;2022-08-02T07:30:34;10.55;;;6.10;;
46447;SDS011;32145;50.390;30.778;2022-08-02T07:33:20;10.80;;;6.63;;
46447;SDS011;32145;50.390;30.778;2022-08-02T07:36:04;8.70;;;6.07;;
46447;SDS011;32145;50.390;30.778;2022-08-02T07:38:49;8.27;;;6.40;;
46447;SDS011;32145;50.390;30.778;2022-08-02T07:41:33;9.65;;;6.30;;
46447;SDS011;32145;50.390;30.778;2022-08-02T07:44:17;9.75;;;6.32;;
46447;SDS011;32145;50.390;30.778;2022-08-02T07:47:02;9.25;;;6.13;;
46447;SDS011;32145;50.390;30.778;2022-08-02T07:49:48;8.20;;;6.45;;
46447;SDS011;32145;50.390;30.778;2022-08-02T07:52:32;9.32;;;6.45;;
46447;SDS011;32145;50.390;30.778;2022-08-02T07:55:17;10.25;;;6.18;;
46447;SDS011;32145;50.390;30.778;2022-08-02T07:58:01;12.90;;;6.28;;
46447;SDS011;32145;50.390;30.778;2022-08-02T08:00:45;9.52;;;6.28;;
46447;SDS011;32145;50.390;30.778;2022-08-02T08:03:29;8.93;;;6.03;;
46447;SDS011;32145;50.390;30.778;2022-08-02T08:06:14;8.55;;;6.45;;
46447;SDS011;32145;50.390;30.778;2022-08-02T08:08:58;7.47;;;5.70;;
46447;SDS011;32145;50.390;30.778;2022-08-02T08:11:42;7.15;;;5.47;;
46447;SDS011;32145;50.390;30.778;2022-08-02T08:14:26;8.73;;;5.38;;
46447;SDS011;32145;50.390;30.778;2022-08-02T08:17:10;7.53;;;4.57;;
46447;SDS011;32145;50.390;30.778;2022-08-02T08:19:53;7.25;;;5.10;;
46447;SDS011;32145;50.390;30.778;2022-08-02T08:22:39;6.65;;;5.03;;
46447;SDS011;32145;50.390;30.778;2022-08-02T08:25:23;6.13;;;4.82;;
46447;SDS011;32145;50.390;30.778;2022-08-02T08:28:07;8.57;;;5.40;;
46447;SDS011;32145;50.390;30.778;2022-08-02T08:30:50;7.40;;;5.03;;
46447;SDS011;32145;50.390;30.778;2022-08-02T08:33:35;9.63;;;5.38;;
46447;SDS011;32145;50.390;30.778;2022-08-02T08:36:19;8.30;;;4.90;;
46447;SDS011;32145;50.390;30.778;2022-08-02T08:39:05;9.35;;;5.10;;
46447;SDS011;32145;50.390;30.778;2022-08-02T08:41:49;10.88;;;5.47;;
46447;SDS011;32145;50.390;30.778;2022-08-02T08:44:33;7.93;;;5.30;;
46447;SDS011;32145;50.390;30.778;2022-08-02T08:47:17;6.95;;;5.00;;
46447;SDS011;32145;50.390;30.778;2022-08-02T08:50:04;6.82;;;4.70;;
46447;SDS011;32145;50.390;30.778;2022-08-02T08:52:51;7.72;;;5.43;;
46447;SDS011;32145;50.390;30.778;2022-08-02T08:55:38;7.30;;;4.95;;
46447;SDS011;32145;50.390;30.778;2022-08-02T08:58:23;8.18;;;5.40;;
46447;SDS011;32145;50.390;30.778;2022-08-02T09:01:07;10.80;;;5.20;;
46447;SDS011;32145;50.390;30.778;2022-08-02T09:03:51;7.43;;;5.38;;
46447;SDS011;32145;50.390;30.778;2022-08-02T09:06:37;7.95;;;5.50;;
46447;SDS011;32145;50.390;30.778;2022-08-02T09:09:21;6.75;;;5.60;;
46447;SDS011;32145;50.390;30.778;2022-08-02T09:12:14;11.98;;;5.65;;
46447;SDS011;32145;50.390;30.778;2022-08-02T09:15:02;6.60;;;5.63;;
46447;SDS011;32145;50.390;30.778;2022-08-02T09:17:49;8.77;;;5.85;;
46447;SDS011;32145;50.390;30.778;2022-08-02T09:20:33;10.57;;;5.47;;
46447;SDS011;32145;50.390;30.778;2022-08-02T09:23:18;9.05;;;5.63;;
46447;SDS011;32145;50.390;30.778;2022-08-02T09:26:03;7.35;;;5.35;;
46447;SDS011;32145;50.390;30.778;2022-08-02T09:28:50;7.25;;;5.15;;
46447;SDS011;32145;50.390;30.778;2022-08-02T09:31:35;8.68;;;5.30;;
46447;SDS011;32145;50.390;30.778;2022-08-02T09:34:19;9.50;;;5.20;;
46447;SDS011;32145;50.390;30.778;2022-08-02T09:37:03;13.00;;;5.38;;
46447;SDS011;32145;50.390;30.778;2022-08-02T09:39:47;8.65;;;5.05;;
46447;SDS011;32145;50.390;30.778;2022-08-02T09:42:31;7.00;;;5.13;;
46447;SDS011;32145;50.390;30.778;2022-08-02T09:45:16;8.80;;;5.28;;
46447;SDS011;32145;50.390;30.778;2022-08-02T09:48:01;6.38;;;5.25;;
46447;SDS011;32145;50.390;30.778;2022-08-02T09:50:45;6.97;;;5.25;;
46447;SDS011;32145;50.390;30.778;2022-08-02T09:53:29;9.90;;;5.38;;
46447;SDS011;32145;50.390;30.778;2022-08-02T09:56:15;7.60;;;5.28;;
46447;SDS011;32145;50.390;30.778;2022-08-02T09:58:59;8.73;;;5.03;;
46447;SDS011;32145;50.390;30.778;2022-08-02T10:01:51;7.68;;;4.30;;
46447;SDS011;32145;50.390;30.778;2022-08-02T10:04:36;7.72;;;4.72;;
46447;SDS011;32145;50.390;30.778;2022-08-02T10:07:20;8.55;;;5.43;;
46447;SDS011;32145;50.390;30.778;2022-08-02T10:10:05;9.43;;;5.60;;
46447;SDS011;32145;50.390;30.778;2022-08-02T10:12:50;8.43;;;5.00;;
46447;SDS011;32145;50.390;30.778;2022-08-02T10:15:35;8.98;;;5.15;;
46447;SDS011;32145;50.390;30.778;2022-08-02T10:18:21;6.28;;;4.93;;
46447;SDS011;32145;50.390;30.778;2022-08-02T10:21:05;8.13;;;5.25;;
46447;SDS011;32145;50.390;30.778;2022-08-02T10:23:52;8.25;;;4.88;;
46447;SDS011;32145;50.390;30.778;2022-08-02T10:26:43;7.35;;;5.40;;
46447;SDS011;32145;50.390;30.778;2022-08-02T10:29:29;10.10;;;5.57;;
46447;SDS011;32145;50.390;30.778;2022-08-02T10:32:18;7.05;;;4.78;;
46447;SDS011;32145;50.390;30.778;2022-08-02T10:35:11;6.32;;;4.88;;
46447;SDS011;32145;50.390;30.778;2022-08-02T10:37:59;8.57;;;5.10;;
46447;SDS011;32145;50.390;30.778;2022-08-02T10:40:47;6.40;;;5.35;;
46447;SDS011;32145;50.390;30.778;2022-08-02T10:43:39;6.75;;;5.03;;
46447;SDS011;32145;50.390;30.778;2022-08-02T10:46:29;8.85;;;5.60;;
46447;SDS011;32145;50.390;30.778;2022-08-02T10:49:15;8.55;;;5.60;;
46447;SDS011;32145;50.390;30.778;2022-08-02T10:54:56;8.77;;;5.28;;
46447;SDS011;32145;50.390;30.778;2022-08-02T10:57:41;7.57;;;5.10;;
46447;SDS011;32145;50.390;30.778;2022-08-02T11:00:25;7.53;;;5.30;;
46447;SDS011;32145;50.390;30.778;2022-08-02T11:06:23;7.85;;;5.80;;
46447;SDS011;32145;50.390;30.778;2022-08-02T11:09:27;7.40;;;5.63;;
46447;SDS011;32145;50.390;30.778;2022-08-02T11:12:13;6.50;;;5.47;;
46447;SDS011;32145;50.390;30.778;2022-08-02T11:15:01;8.55;;;5.43;;
46447;SDS011;32145;50.390;30.778;2022-08-02T11:17:50;7.72;;;5.90;;
46447;SDS011;32145;50.390;30.778;2022-08-02T11:20:35;8.52;;;6.15;;
46447;SDS011;32145;50.390;30.778;2022-08-02T11:23:32;7.78;;;5.63;;
46447;SDS011;32145;50.390;30.778;2022-08-02T11:29:32;9.15;;;5.40;;
46447;SDS011;32145;50.390;30.778;2022-08-02T11:32:22;7.05;;;5.40;;
46447;SDS011;32145;50.390;30.778;2022-08-02T11:35:07;8.80;;;5.80;;
46447;SDS011;32145;50.390;30.778;2022-08-02T11:37:51;12.48;;;5.53;;
46447;SDS011;32145;50.390;30.778;2022-08-02T11:40:36;8.30;;;5.32;;
46447;SDS011;32145;50.390;30.778;2022-08-02T11:43:23;6.70;;;5.50;;
46447;SDS011;32145;50.390;30.778;2022-08-02T11:46:12;7.05;;;5.63;;
46447;SDS011;32145;50.390;30.778;2022-08-02T11:49:01;8.43;;;5.50;;
46447;SDS011;32145;50.390;30.778;2022-08-02T11:51:55;8.30;;;5.70;;
46447;SDS011;32145;50.390;30.778;2022-08-02T11:54:40;6.63;;;5.70;;
46447;SDS011;32145;50.390;30.778;2022-08-02T11:57:25;7.97;;;5.40;;
46447;SDS011;32145;50.390;30.778;2022-08-02T12:00:14;6.68;;;5.25;;
46447;SDS011;32145;50.390;30.778;2022-08-02T12:03:00;6.53;;;5.38;;
46447;SDS011;32145;50.390;30.778;2022-08-02T12:05:47;6.63;;;5.55;;
46447;SDS011;32145;50.390;30.778;2022-08-02T12:08:32;8.18;;;5.57;;
46447;SDS011;32145;50.390;30.778;2022-08-02T12:11:19;6.97;;;5.70;;
46447;SDS011;32145;50.390;30.778;2022-08-02T12:14:03;7.38;;;5.93;;
46447;SDS011;32145;50.390;30.778;2022-08-02T12:16:50;7.65;;;5.22;;
46447;SDS011;32145;50.390;30.778;2022-08-02T12:19:34;8.10;;;5.72;;
46447;SDS011;32145;50.390;30.778;2022-08-02T12:22:22;7.53;;;5.70;;
46447;SDS011;32145;50.390;30.778;2022-08-02T12:25:14;7.47;;;5.83;;
46447;SDS011;32145;50.390;30.778;2022-08-02T12:28:11;7.93;;;5.53;;
46447;SDS011;32145;50.390;30.778;2022-08-02T12:31:01;8.30;;;5.63;;
46447;SDS011;32145;50.390;30.778;2022-08-02T12:33:47;9.35;;;5.65;;
46447;SDS011;32145;50.390;30.778;2022-08-02T12:36:32;8.00;;;6.05;;
46447;SDS011;32145;50.390;30.778;2022-08-02T12:39:17;8.40;;;6.25;;
46447;SDS011;32145;50.390;30.778;2022-08-02T12:42:00;7.95;;;5.63;;
46447;SDS011;32145;50.390;30.778;2022-08-02T12:44:49;7.75;;;5.90;;
46447;SDS011;32145;50.390;30.778;2022-08-02T12:47:33;7.03;;;5.13;;
46447;SDS011;32145;50.390;30.778;2022-08-02T12:50:30;7.13;;;5.70;;
46447;SDS011;32145;50.390;30.778;2022-08-02T12:53:16;7.30;;;5.13;;
46447;SDS011;32145;50.390;30.778;2022-08-02T12:56:00;7.55;;;5.40;;
46447;SDS011;32145;50.390;30.778;2022-08-02T12:58:47;10.10;;;5.85;;
46447;SDS011;32145;50.390;30.778;2022-08-02T13:01:32;8.43;;;5.80;;
46447;SDS011;32145;50.390;30.778;2022-08-02T13:04:17;5.90;;;5.30;;
46447;SDS011;32145;50.390;30.778;2022-08-02T13:07:03;10.73;;;5.90;;
46447;SDS011;32145;50.390;30.778;2022-08-02T13:09:48;8.10;;;5.85;;
46447;SDS011;32145;50.390;30.778;2022-08-02T13:12:32;6.07;;;5.38;;
46447;SDS011;32145;50.390;30.778;2022-08-02T13:15:16;6.72;;;5.60;;
46447;SDS011;32145;50.390;30.778;2022-08-02T13:18:01;8.40;;;5.32;;
46447;SDS011;32145;50.390;30.778;2022-08-02T13:20:45;6.53;;;5.35;;
46447;SDS011;32145;50.390;30.778;2022-08-02T13:23:30;8.93;;;5.18;;
46447;SDS011;32145;50.390;30.778;2022-08-02T13:26:15;6.15;;;5.55;;
46447;SDS011;32145;50.390;30.778;2022-08-02T13:28:59;7.53;;;5.63;;
46447;SDS011;32145;50.390;30.778;2022-08-02T13:31:43;7.65;;;5.20;;
46447;SDS011;32145;50.390;30.778;2022-08-02T13:34:27;8.32;;;6.20;;
46447;SDS011;32145;50.390;30.778;2022-08-02T13:37:11;8.23;;;6.53;;
46447;SDS011;32145;50.390;30.778;2022-08-02T13:39:56;9.18;;;6.00;;
46447;SDS011;32145;50.390;30.778;2022-08-02T13:42:41;8.55;;;6.45;;
46447;SDS011;32145;50.390;30.778;2022-08-02T13:45:25;8.77;;;6.13;;
46447;SDS011;32145;50.390;30.778;2022-08-02T13:48:09;7.50;;;5.60;;
46447;SDS011;32145;50.390;30.778;2022-08-02T13:50:53;11.32;;;5.97;;
46447;SDS011;32145;50.390;30.778;2022-08-02T13:53:37;6.95;;;5.80;;
46447;SDS011;32145;50.390;30.778;2022-08-02T13:56:23;8.75;;;7.20;;
46447;SDS011;32145;50.390;30.778;2022-08-02T13:59:07;7.60;;;6.03;;
46447;SDS011;32145;50.390;30.778;2022-08-02T14:01:51;8.68;;;5.95;;
46447;SDS011;32145;50.390;30.778;2022-08-02T14:04:35;8.85;;;5.90;;
46447;SDS011;32145;50.390;30.778;2022-08-02T14:07:19;8.07;;;6.10;;
46447;SDS011;32145;50.390;30.778;2022-08-02T14:10:04;10.05;;;7.53;;
46447;SDS011;32145;50.390;30.778;2022-08-02T14:12:50;7.88;;;6.53;;
46447;SDS011;32145;50.390;30.778;2022-08-02T14:15:34;11.20;;;7.30;;
46447;SDS011;32145;50.390;30.778;2022-08-02T14:18:18;12.50;;;8.73;;
46447;SDS011;32145;50.390;30.778;2022-08-02T14:21:03;9.88;;;7.15;;
46447;SDS011;32145;50.390;30.778;2022-08-02T14:23:47;9.38;;;6.32;;
46447;SDS011;32145;50.390;30.778;2022-08-02T14:26:31;7.28;;;6.32;;
46447;SDS011;32145;50.390;30.778;2022-08-02T14:29:16;7.47;;;5.82;;
46447;SDS011;32145;50.390;30.778;2022-08-02T14:32:00;8.85;;;6.07;;
46447;SDS011;32145;50.390;30.778;2022-08-02T14:34:45;8.30;;;5.70;;
46447;SDS011;32145;50.390;30.778;2022-08-02T14:37:29;7.10;;;5.15;;
46447;SDS011;32145;50.390;30.778;2022-08-02T14:40:13;9.57;;;5.95;;
46447;SDS011;32145;50.390;30.778;2022-08-02T14:42:57;10.27;;;5.93;;
46447;SDS011;32145;50.390;30.778;2022-08-02T14:45:42;9.18;;;6.05;;
46447;SDS011;32145;50.390;30.778;2022-08-02T14:48:26;6.47;;;4.55;;
46447;SDS011;32145;50.390;30.778;2022-08-02T14:51:10;7.43;;;4.45;;
46447;SDS011;32145;50.390;30.778;2022-08-02T14:53:54;5.07;;;4.32;;
46447;SDS011;32145;50.390;30.778;2022-08-02T14:56:38;6.88;;;4.30;;
46447;SDS011;32145;50.390;30.778;2022-08-02T14:59:22;6.97;;;4.95;;
46447;SDS011;32145;50.390;30.778;2022-08-02T15:02:08;8.02;;;5.07;;
46447;SDS011;32145;50.390;30.778;2022-08-02T15:04:52;5.80;;;5.05;;
46447;SDS011;32145;50.390;30.778;2022-08-02T15:07:36;7.00;;;5.00;;
46447;SDS011;32145;50.390;30.778;2022-08-02T15:10:20;5.47;;;4.70;;
46447;SDS011;32145;50.390;30.778;2022-08-02T15:13:04;8.15;;;5.43;;
46447;SDS011;32145;50.390;30.778;2022-08-02T15:15:48;8.05;;;5.10;;
46447;SDS011;32145;50.390;30.778;2022-08-02T15:18:33;6.72;;;5.10;;
46447;SDS011;32145;50.390;30.778;2022-08-02T15:21:19;5.78;;;5.18;;
46447;SDS011;32145;50.390;30.778;2022-08-02T15:24:04;6.68;;;4.57;;
46447;SDS011;32145;50.390;30.778;2022-08-02T15:26:48;5.35;;;4.55;;
46447;SDS011;32145;50.390;30.778;2022-08-02T15:29:32;6.47;;;4.90;;
46447;SDS011;32145;50.390;30.778;2022-08-02T15:32:16;6.45;;;4.97;;
46447;SDS011;32145;50.390;30.778;2022-08-02T15:35:02;7.70;;;4.35;;
46447;SDS011;32145;50.390;30.778;2022-08-02T15:37:46;7.53;;;4.72;;
46447;SDS011;32145;50.390;30.778;2022-08-02T15:40:30;5.80;;;4.90;;
46447;SDS011;32145;50.390;30.778;2022-08-02T15:43:14;6.25;;;4.57;;
46447;SDS011;32145;50.390;30.778;2022-08-02T15:45:58;5.45;;;4.80;;
46447;SDS011;32145;50.390;30.778;2022-08-02T15:48:42;6.28;;;4.78;;
46447;SDS011;32145;50.390;30.778;2022-08-02T15:51:27;6.65;;;5.03;;
46447;SDS011;32145;50.390;30.778;2022-08-02T15:54:11;6.70;;;5.45;;
46447;SDS011;32145;50.390;30.778;2022-08-02T15:56:55;7.35;;;5.10;;
46447;SDS011;32145;50.390;30.778;2022-08-02T15:59:39;6.22;;;5.38;;
46447;SDS011;32145;50.390;30.778;2022-08-02T16:02:23;6.20;;;5.00;;
46447;SDS011;32145;50.390;30.778;2022-08-02T16:05:07;7.00;;;5.60;;
46447;SDS011;32145;50.390;30.778;2022-08-02T16:07:53;7.05;;;5.65;;
46447;SDS011;32145;50.390;30.778;2022-08-02T16:10:38;11.30;;;6.93;;
46447;SDS011;32145;50.390;30.778;2022-08-02T16:13:22;9.93;;;6.75;;
46447;SDS011;32145;50.390;30.778;2022-08-02T16:16:06;9.25;;;6.68;;
46447;SDS011;32145;50.390;30.778;2022-08-02T16:18:49;8.10;;;6.55;;
46447;SDS011;32145;50.390;30.778;2022-08-02T16:21:33;11.50;;;6.90;;
46447;SDS011;32145;50.390;30.778;2022-08-02T16:24:19;7.32;;;6.43;;
46447;SDS011;32145;50.390;30.778;2022-08-02T16:27:03;8.95;;;6.60;;
46447;SDS011;32145;50.390;30.778;2022-08-02T16:29:47;7.45;;;6.65;;
46447;SDS011;32145;50.390;30.778;2022-08-02T16:32:31;7.40;;;6.60;;